sensor_id;sensor_type;location;lat;lon;timestamp;P1;durP1;ratioP1;P2;durP2;ratioP2
15573;SDS011;7888;46.748;8.102;2023-08-07T05:46:30;0.40;;;0.40;;
15573;SDS011;7888;46.748;8.102;2023-08-07T05:48:56;0.40;;;0.40;;
15573;SDS011;7888;46.748;8.102;2023-08-07T05:51:21;0.40;;;0.40;;
15573;SDS011;7888;46.748;8.102;2023-08-07T05:53:47;1.13;;;0.50;;
15573;SDS011;7888;46.748;8.102;2023-08-07T05:56:13;0.53;;;0.53;;
15573;SDS011;7888;46.748;8.102;2023-08-07T05:58:39;0.83;;;0.60;;
15573;SDS011;7888;46.748;8.102;2023-08-07T06:01:05;1.57;;;0.60;;
15573;SDS011;7888;46.748;8.102;2023-08-07T06:03:31;1.00;;;0.67;;
15573;SDS011;7888;46.748;8.102;2023-08-07T06:05:57;0.57;;;0.57;;
15573;SDS011;7888;46.748;8.102;2023-08-07T06:08:23;0.60;;;0.60;;
15573;SDS011;7888;46.748;8.102;2023-08-07T06:10:49;0.60;;;0.60;;
15573;SDS011;7888;46.748;8.102;2023-08-07T06:13:14;0.80;;;0.60;;
15573;SDS011;7888;46.748;8.102;2023-08-07T06:15:40;3.03;;;0.80;;
15573;SDS011;7888;46.748;8.102;2023-08-07T06:18:06;0.50;;;0.50;;
15573;SDS011;7888;46.748;8.102;2023-08-07T06:20:31;0.33;;;0.33;;
15573;SDS011;7888;46.748;8.102;2023-08-07T06:22:58;0.57;;;0.50;;
15573;SDS011;7888;46.748;8.102;2023-08-07T06:25:24;0.87;;;0.50;;
15573;SDS011;7888;46.748;8.102;2023-08-07T06:27:50;0.90;;;0.70;;
15573;SDS011;7888;46.748;8.102;2023-08-07T06:30:16;1.87;;;0.70;;
15573;SDS011;7888;46.748;8.102;2023-08-07T06:32:42;1.57;;;0.50;;
15573;SDS011;7888;46.748;8.102;2023-08-07T06:35:08;0.53;;;0.50;;
15573;SDS011;7888;46.748;8.102;2023-08-07T06:37:34;0.43;;;0.40;;
15573;SDS011;7888;46.748;8.102;2023-08-07T06:39:59;0.50;;;0.50;;
15573;SDS011;7888;46.748;8.102;2023-08-07T06:42:26;0.50;;;0.40;;
15573;SDS011;7888;46.748;8.102;2023-08-07T06:44:52;0.93;;;0.50;;
15573;SDS011;7888;46.748;8.102;2023-08-07T06:47:17;0.40;;;0.40;;
15573;SDS011;7888;46.748;8.102;2023-08-07T06:49:43;0.23;;;0.23;;
15573;SDS011;7888;46.748;8.102;2023-08-07T06:52:09;0.30;;;0.30;;
15573;SDS011;7888;46.748;8.102;2023-08-07T06:54:35;0.30;;;0.30;;
15573;SDS011;7888;46.748;8.102;2023-08-07T06:57:00;0.73;;;0.40;;
15573;SDS011;7888;46.748;8.102;2023-08-07T06:59:26;2.23;;;0.60;;
15573;SDS011;7888;46.748;8.102;2023-08-07T07:01:52;0.37;;;0.37;;
15573;SDS011;7888;46.748;8.102;2023-08-07T07:04:17;0.87;;;0.43;;
15573;SDS011;7888;46.748;8.102;2023-08-07T07:06:43;0.30;;;0.30;;
15573;SDS011;7888;46.748;8.102;2023-08-07T07:09:09;1.87;;;0.40;;
15573;SDS011;7888;46.748;8.102;2023-08-07T07:11:35;0.40;;;0.30;;
15573;SDS011;7888;46.748;8.102;2023-08-07T07:14:00;0.97;;;0.60;;
15573;SDS011;7888;46.748;8.102;2023-08-07T07:16:26;0.50;;;0.50;;
15573;SDS011;7888;46.748;8.102;2023-08-07T07:18:52;0.80;;;0.50;;
15573;SDS011;7888;46.748;8.102;2023-08-07T07:21:21;0.40;;;0.40;;
15573;SDS011;7888;46.748;8.102;2023-08-07T07:23:46;0.30;;;0.30;;
15573;SDS011;7888;46.748;8.102;2023-08-07T07:26:12;0.80;;;0.40;;
15573;SDS011;7888;46.748;8.102;2023-08-07T07:28:38;0.50;;;0.50;;
15573;SDS011;7888;46.748;8.102;2023-08-07T07:31:03;0.50;;;0.50;;
15573;SDS011;7888;46.748;8.102;2023-08-07T07:33:30;0.47;;;0.40;;
15573;SDS011;7888;46.748;8.102;2023-08-07T07:35:56;0.90;;;0.40;;
15573;SDS011;7888;46.748;8.102;2023-08-07T07:38:21;0.40;;;0.40;;
15573;SDS011;7888;46.748;8.102;2023-08-07T07:40:47;2.23;;;0.53;;
15573;SDS011;7888;46.748;8.102;2023-08-07T07:43:13;0.50;;;0.50;;
15573;SDS011;7888;46.748;8.102;2023-08-07T07:45:39;0.50;;;0.50;;
15573;SDS011;7888;46.748;8.102;2023-08-07T07:48:04;0.40;;;0.40;;
15573;SDS011;7888;46.748;8.102;2023-08-07T07:50:31;0.43;;;0.40;;
15573;SDS011;7888;46.748;8.102;2023-08-07T07:52:57;0.83;;;0.40;;
15573;SDS011;7888;46.748;8.102;2023-08-07T07:55:24;0.30;;;0.30;;
15573;SDS011;7888;46.748;8.102;2023-08-07T07:57:50;1.20;;;0.40;;
15573;SDS011;7888;46.748;8.102;2023-08-07T08:00:16;0.30;;;0.30;;
15573;SDS011;7888;46.748;8.102;2023-08-07T08:02:43;0.50;;;0.50;;
15573;SDS011;7888;46.748;8.102;2023-08-07T08:05:09;0.30;;;0.30;;
15573;SDS011;7888;46.748;8.102;2023-08-07T08:07:38;0.40;;;0.30;;
15573;SDS011;7888;46.748;8.102;2023-08-07T08:10:07;0.40;;;0.30;;
15573;SDS011;7888;46.748;8.102;2023-08-07T08:12:34;0.50;;;0.30;;
15573;SDS011;7888;46.748;8.102;2023-08-07T08:15:01;0.87;;;0.40;;
15573;SDS011;7888;46.748;8.102;2023-08-07T08:17:28;0.30;;;0.30;;
15573;SDS011;7888;46.748;8.102;2023-08-07T08:19:54;0.57;;;0.40;;
15573;SDS011;7888;46.748;8.102;2023-08-07T08:22:20;0.57;;;0.50;;
15573;SDS011;7888;46.748;8.102;2023-08-07T08:24:45;0.47;;;0.40;;
15573;SDS011;7888;46.748;8.102;2023-08-07T08:27:12;0.27;;;0.27;;
15573;SDS011;7888;46.748;8.102;2023-08-07T08:29:38;1.13;;;0.40;;
15573;SDS011;7888;46.748;8.102;2023-08-07T08:32:04;0.40;;;0.40;;
15573;SDS011;7888;46.748;8.102;2023-08-07T08:34:30;0.40;;;0.40;;
15573;SDS011;7888;46.748;8.102;2023-08-07T08:36:56;0.43;;;0.40;;
15573;SDS011;7888;46.748;8.102;2023-08-07T08:39:22;1.07;;;0.40;;
15573;SDS011;7888;46.748;8.102;2023-08-07T08:41:49;0.73;;;0.40;;
15573;SDS011;7888;46.748;8.102;2023-08-07T08:44:15;0.30;;;0.30;;
15573;SDS011;7888;46.748;8.102;2023-08-07T08:46:44;0.60;;;0.40;;
15573;SDS011;7888;46.748;8.102;2023-08-07T08:49:18;0.90;;;0.50;;
15573;SDS011;7888;46.748;8.102;2023-08-07T08:51:50;0.47;;;0.40;;
15573;SDS011;7888;46.748;8.102;2023-08-07T08:54:16;0.90;;;0.40;;
15573;SDS011;7888;46.748;8.102;2023-08-07T08:56:42;0.40;;;0.40;;
15573;SDS011;7888;46.748;8.102;2023-08-07T08:59:08;0.30;;;0.30;;
15573;SDS011;7888;46.748;8.102;2023-08-07T09:01:35;0.37;;;0.27;;
15573;SDS011;7888;46.748;8.102;2023-08-07T09:04:02;0.40;;;0.30;;
15573;SDS011;7888;46.748;8.102;2023-08-07T09:06:30;0.30;;;0.30;;
15573;SDS011;7888;46.748;8.102;2023-08-07T09:08:57;0.30;;;0.30;;
15573;SDS011;7888;46.748;8.102;2023-08-07T09:11:25;0.83;;;0.40;;
15573;SDS011;7888;46.748;8.102;2023-08-07T09:13:52;0.40;;;0.40;;
15573;SDS011;7888;46.748;8.102;2023-08-07T09:16:21;0.77;;;0.47;;
15573;SDS011;7888;46.748;8.102;2023-08-07T09:18:50;0.50;;;0.40;;
15573;SDS011;7888;46.748;8.102;2023-08-07T09:21:16;0.50;;;0.43;;
15573;SDS011;7888;46.748;8.102;2023-08-07T09:23:43;1.10;;;0.60;;
15573;SDS011;7888;46.748;8.102;2023-08-07T09:26:09;0.67;;;0.30;;
15573;SDS011;7888;46.748;8.102;2023-08-07T09:28:36;0.73;;;0.40;;
15573;SDS011;7888;46.748;8.102;2023-08-07T09:31:02;0.47;;;0.40;;
15573;SDS011;7888;46.748;8.102;2023-08-07T09:33:31;0.90;;;0.47;;
15573;SDS011;7888;46.748;8.102;2023-08-07T09:35:57;0.45;;;0.45;;
15573;SDS011;7888;46.748;8.102;2023-08-07T09:38:27;0.45;;;0.40;;
15573;SDS011;7888;46.748;8.102;2023-08-07T09:41:00;1.35;;;0.38;;
15573;SDS011;7888;46.748;8.102;2023-08-07T09:43:28;1.00;;;0.50;;
15573;SDS011;7888;46.748;8.102;2023-08-07T09:46:02;0.77;;;0.60;;
15573;SDS011;7888;46.748;8.102;2023-08-07T09:48:31;0.80;;;0.70;;
15573;SDS011;7888;46.748;8.102;2023-08-07T09:51:03;0.63;;;0.60;;
15573;SDS011;7888;46.748;8.102;2023-08-07T09:53:29;0.60;;;0.40;;
15573;SDS011;7888;46.748;8.102;2023-08-07T09:55:56;0.35;;;0.35;;
15573;SDS011;7888;46.748;8.102;2023-08-07T09:58:22;0.90;;;0.50;;
15573;SDS011;7888;46.748;8.102;2023-08-07T10:00:50;0.68;;;0.40;;
15573;SDS011;7888;46.748;8.102;2023-08-07T10:03:20;0.82;;;0.40;;
15573;SDS011;7888;46.748;8.102;2023-08-07T10:05:47;0.50;;;0.40;;
15573;SDS011;7888;46.748;8.102;2023-08-07T10:08:13;0.75;;;0.50;;
15573;SDS011;7888;46.748;8.102;2023-08-07T10:10:39;0.50;;;0.40;;
15573;SDS011;7888;46.748;8.102;2023-08-07T10:13:05;0.40;;;0.40;;
15573;SDS011;7888;46.748;8.102;2023-08-07T10:15:32;0.73;;;0.40;;
15573;SDS011;7888;46.748;8.102;2023-08-07T10:18:01;1.85;;;0.52;;
15573;SDS011;7888;46.748;8.102;2023-08-07T10:20:28;0.63;;;0.40;;
15573;SDS011;7888;46.748;8.102;2023-08-07T10:23:00;0.43;;;0.32;;
15573;SDS011;7888;46.748;8.102;2023-08-07T10:25:34;0.30;;;0.30;;
15573;SDS011;7888;46.748;8.102;2023-08-07T10:28:03;0.88;;;0.40;;
15573;SDS011;7888;46.748;8.102;2023-08-07T10:30:35;0.32;;;0.30;;
15573;SDS011;7888;46.748;8.102;2023-08-07T10:33:03;1.40;;;0.40;;
15573;SDS011;7888;46.748;8.102;2023-08-07T10:35:33;0.65;;;0.50;;
15573;SDS011;7888;46.748;8.102;2023-08-07T10:38:06;0.63;;;0.50;;
15573;SDS011;7888;46.748;8.102;2023-08-07T10:43:35;1.75;;;0.47;;
15573;SDS011;7888;46.748;8.102;2023-08-07T10:46:06;1.65;;;0.55;;
15573;SDS011;7888;46.748;8.102;2023-08-07T10:48:47;0.65;;;0.55;;
15573;SDS011;7888;46.748;8.102;2023-08-07T10:51:22;0.75;;;0.52;;
15573;SDS011;7888;46.748;8.102;2023-08-07T10:53:56;0.60;;;0.40;;
15573;SDS011;7888;46.748;8.102;2023-08-07T10:56:35;0.70;;;0.40;;
15573;SDS011;7888;46.748;8.102;2023-08-07T10:59:07;1.00;;;0.57;;
15573;SDS011;7888;46.748;8.102;2023-08-07T11:04:13;1.85;;;0.47;;
15573;SDS011;7888;46.748;8.102;2023-08-07T11:06:40;0.50;;;0.50;;
15573;SDS011;7888;46.748;8.102;2023-08-07T11:09:09;0.30;;;0.30;;
15573;SDS011;7888;46.748;8.102;2023-08-07T11:11:42;0.40;;;0.40;;
15573;SDS011;7888;46.748;8.102;2023-08-07T11:14:15;0.75;;;0.50;;
15573;SDS011;7888;46.748;8.102;2023-08-07T11:16:42;0.52;;;0.43;;
15573;SDS011;7888;46.748;8.102;2023-08-07T11:19:11;0.52;;;0.45;;
15573;SDS011;7888;46.748;8.102;2023-08-07T11:21:42;0.43;;;0.40;;
15573;SDS011;7888;46.748;8.102;2023-08-07T11:24:13;0.35;;;0.35;;
15573;SDS011;7888;46.748;8.102;2023-08-07T11:26:42;0.50;;;0.45;;
15573;SDS011;7888;46.748;8.102;2023-08-07T11:29:09;0.50;;;0.50;;
15573;SDS011;7888;46.748;8.102;2023-08-07T11:31:35;0.35;;;0.35;;
15573;SDS011;7888;46.748;8.102;2023-08-07T11:34:01;0.90;;;0.70;;
15573;SDS011;7888;46.748;8.102;2023-08-07T11:36:27;0.90;;;0.70;;
15573;SDS011;7888;46.748;8.102;2023-08-07T11:38:54;0.65;;;0.55;;
15573;SDS011;7888;46.748;8.102;2023-08-07T11:41:20;1.05;;;0.50;;
15573;SDS011;7888;46.748;8.102;2023-08-07T11:43:45;0.40;;;0.40;;
15573;SDS011;7888;46.748;8.102;2023-08-07T11:46:12;0.38;;;0.38;;
15573;SDS011;7888;46.748;8.102;2023-08-07T11:48:41;0.65;;;0.40;;
15573;SDS011;7888;46.748;8.102;2023-08-07T11:51:09;0.43;;;0.32;;
15573;SDS011;7888;46.748;8.102;2023-08-07T11:53:35;0.35;;;0.35;;
15573;SDS011;7888;46.748;8.102;2023-08-07T11:56:07;0.80;;;0.60;;
15573;SDS011;7888;46.748;8.102;2023-08-07T11:58:45;0.68;;;0.47;;
15573;SDS011;7888;46.748;8.102;2023-08-07T12:01:17;0.35;;;0.30;;
15573;SDS011;7888;46.748;8.102;2023-08-07T12:06:34;0.40;;;0.40;;
15573;SDS011;7888;46.748;8.102;2023-08-07T12:09:05;0.60;;;0.38;;
15573;SDS011;7888;46.748;8.102;2023-08-07T12:11:37;0.40;;;0.40;;
15573;SDS011;7888;46.748;8.102;2023-08-07T12:14:03;2.53;;;0.70;;
15573;SDS011;7888;46.748;8.102;2023-08-07T12:16:32;5.60;;;1.40;;
15573;SDS011;7888;46.748;8.102;2023-08-07T12:18:59;1.42;;;0.70;;
15573;SDS011;7888;46.748;8.102;2023-08-07T12:21:27;2.13;;;0.95;;
15573;SDS011;7888;46.748;8.102;2023-08-07T12:23:56;2.20;;;1.02;;
15573;SDS011;7888;46.748;8.102;2023-08-07T12:26:22;0.95;;;0.50;;
15573;SDS011;7888;46.748;8.102;2023-08-07T12:28:48;12.95;;;3.50;;
15573;SDS011;7888;46.748;8.102;2023-08-07T12:31:14;5.22;;;1.52;;
15573;SDS011;7888;46.748;8.102;2023-08-07T12:33:42;5.53;;;1.40;;
15573;SDS011;7888;46.748;8.102;2023-08-07T12:36:08;5.32;;;2.00;;
15573;SDS011;7888;46.748;8.102;2023-08-07T12:38:35;1.70;;;0.73;;
15573;SDS011;7888;46.748;8.102;2023-08-07T12:41:01;1.42;;;0.43;;
15573;SDS011;7888;46.748;8.102;2023-08-07T12:43:28;0.50;;;0.50;;
15573;SDS011;7888;46.748;8.102;2023-08-07T12:45:54;1.63;;;0.80;;
15573;SDS011;7888;46.748;8.102;2023-08-07T12:48:20;0.50;;;0.50;;
15573;SDS011;7888;46.748;8.102;2023-08-07T12:50:45;1.15;;;0.47;;
15573;SDS011;7888;46.748;8.102;2023-08-07T12:53:11;1.00;;;0.50;;
15573;SDS011;7888;46.748;8.102;2023-08-07T12:55:37;0.70;;;0.50;;
15573;SDS011;7888;46.748;8.102;2023-08-07T12:58:03;1.02;;;0.38;;
15573;SDS011;7888;46.748;8.102;2023-08-07T13:00:28;1.10;;;0.57;;
15573;SDS011;7888;46.748;8.102;2023-08-07T13:02:54;1.45;;;0.40;;
15573;SDS011;7888;46.748;8.102;2023-08-07T13:05:21;1.05;;;0.60;;
15573;SDS011;7888;46.748;8.102;2023-08-07T13:07:48;0.57;;;0.40;;
15573;SDS011;7888;46.748;8.102;2023-08-07T13:10:15;0.45;;;0.38;;
15573;SDS011;7888;46.748;8.102;2023-08-07T13:12:42;2.15;;;0.80;;
15573;SDS011;7888;46.748;8.102;2023-08-07T13:15:12;2.72;;;0.60;;
15573;SDS011;7888;46.748;8.102;2023-08-07T13:17:40;2.50;;;0.75;;
15573;SDS011;7888;46.748;8.102;2023-08-07T13:20:08;8.43;;;1.48;;
15573;SDS011;7888;46.748;8.102;2023-08-07T13:22:36;1.10;;;0.60;;
15573;SDS011;7888;46.748;8.102;2023-08-07T13:25:03;0.52;;;0.50;;
15573;SDS011;7888;46.748;8.102;2023-08-07T13:27:30;0.80;;;0.40;;
15573;SDS011;7888;46.748;8.102;2023-08-07T13:29:57;0.35;;;0.35;;
15573;SDS011;7888;46.748;8.102;2023-08-07T13:32:23;1.10;;;0.70;;
15573;SDS011;7888;46.748;8.102;2023-08-07T13:34:49;0.55;;;0.45;;
15573;SDS011;7888;46.748;8.102;2023-08-07T13:37:15;0.55;;;0.50;;
15573;SDS011;7888;46.748;8.102;2023-08-07T13:39:41;0.95;;;0.50;;
15573;SDS011;7888;46.748;8.102;2023-08-07T13:42:07;0.50;;;0.30;;
15573;SDS011;7888;46.748;8.102;2023-08-07T13:44:33;0.73;;;0.60;;
15573;SDS011;7888;46.748;8.102;2023-08-07T13:46:59;0.95;;;0.50;;
15573;SDS011;7888;46.748;8.102;2023-08-07T13:49:24;0.30;;;0.30;;
15573;SDS011;7888;46.748;8.102;2023-08-07T13:51:50;0.30;;;0.30;;
15573;SDS011;7888;46.748;8.102;2023-08-07T13:54:16;0.50;;;0.50;;
15573;SDS011;7888;46.748;8.102;2023-08-07T13:56:42;1.10;;;0.50;;
15573;SDS011;7888;46.748;8.102;2023-08-07T13:59:08;0.40;;;0.40;;
15573;SDS011;7888;46.748;8.102;2023-08-07T14:01:34;0.38;;;0.38;;
15573;SDS011;7888;46.748;8.102;2023-08-07T14:04:00;0.82;;;0.60;;
15573;SDS011;7888;46.748;8.102;2023-08-07T14:06:27;0.32;;;0.32;;
15573;SDS011;7888;46.748;8.102;2023-08-07T14:08:53;3.42;;;0.70;;
15573;SDS011;7888;46.748;8.102;2023-08-07T14:11:19;0.43;;;0.40;;
15573;SDS011;7888;46.748;8.102;2023-08-07T14:13:45;0.70;;;0.50;;
15573;SDS011;7888;46.748;8.102;2023-08-07T14:16:12;0.50;;;0.40;;
15573;SDS011;7888;46.748;8.102;2023-08-07T14:18:38;0.63;;;0.40;;
15573;SDS011;7888;46.748;8.102;2023-08-07T14:21:04;0.82;;;0.35;;
15573;SDS011;7888;46.748;8.102;2023-08-07T14:23:30;0.50;;;0.50;;
15573;SDS011;7888;46.748;8.102;2023-08-07T14:25:56;0.88;;;0.40;;
15573;SDS011;7888;46.748;8.102;2023-08-07T14:28:22;0.35;;;0.35;;
15573;SDS011;7888;46.748;8.102;2023-08-07T14:30:47;0.30;;;0.30;;
15573;SDS011;7888;46.748;8.102;2023-08-07T14:33:14;0.63;;;0.40;;
15573;SDS011;7888;46.748;8.102;2023-08-07T14:35:40;0.30;;;0.30;;
15573;SDS011;7888;46.748;8.102;2023-08-07T14:38:06;1.77;;;0.47;;
15573;SDS011;7888;46.748;8.102;2023-08-07T14:40:33;0.57;;;0.40;;
15573;SDS011;7888;46.748;8.102;2023-08-07T14:42:58;1.65;;;0.50;;
15573;SDS011;7888;46.748;8.102;2023-08-07T14:45:24;0.30;;;0.30;;
15573;SDS011;7888;46.748;8.102;2023-08-07T14:47:50;0.40;;;0.40;;
15573;SDS011;7888;46.748;8.102;2023-08-07T14:50:16;0.40;;;0.40;;
15573;SDS011;7888;46.748;8.102;2023-08-07T14:52:42;2.08;;;0.40;;
15573;SDS011;7888;46.748;8.102;2023-08-07T14:55:08;0.52;;;0.45;;
15573;SDS011;7888;46.748;8.102;2023-08-07T14:57:34;0.60;;;0.40;;
15573;SDS011;7888;46.748;8.102;2023-08-07T15:00:00;0.57;;;0.40;;
15573;SDS011;7888;46.748;8.102;2023-08-07T15:02:26;0.52;;;0.50;;
15573;SDS011;7888;46.748;8.102;2023-08-07T15:04:52;0.43;;;0.40;;
15573;SDS011;7888;46.748;8.102;2023-08-07T15:07:17;0.50;;;0.43;;
15573;SDS011;7888;46.748;8.102;2023-08-07T15:09:43;1.60;;;0.80;;
15573;SDS011;7888;46.748;8.102;2023-08-07T15:12:09;0.70;;;0.40;;
15573;SDS011;7888;46.748;8.102;2023-08-07T15:14:36;0.90;;;0.60;;
15573;SDS011;7888;46.748;8.102;2023-08-07T15:17:01;0.93;;;0.40;;
15573;SDS011;7888;46.748;8.102;2023-08-07T15:19:28;0.50;;;0.30;;
15573;SDS011;7888;46.748;8.102;2023-08-07T15:21:54;0.32;;;0.32;;
15573;SDS011;7888;46.748;8.102;2023-08-07T15:24:19;0.50;;;0.50;;
15573;SDS011;7888;46.748;8.102;2023-08-07T15:26:45;0.40;;;0.30;;
15573;SDS011;7888;46.748;8.102;2023-08-07T15:29:11;0.40;;;0.40;;
15573;SDS011;7888;46.748;8.102;2023-08-07T15:31:37;0.68;;;0.40;;
15573;SDS011;7888;46.748;8.102;2023-08-07T15:34:04;0.55;;;0.38;;
15573;SDS011;7888;46.748;8.102;2023-08-07T15:36:30;0.55;;;0.50;;
15573;SDS011;7888;46.748;8.102;2023-08-07T15:38:55;0.47;;;0.47;;
15573;SDS011;7888;46.748;8.102;2023-08-07T15:41:22;0.63;;;0.32;;
15573;SDS011;7888;46.748;8.102;2023-08-07T15:43:47;0.40;;;0.40;;
15573;SDS011;7888;46.748;8.102;2023-08-07T15:46:16;0.52;;;0.50;;
15573;SDS011;7888;46.748;8.102;2023-08-07T15:48:43;0.43;;;0.30;;
15573;SDS011;7888;46.748;8.102;2023-08-07T15:51:08;0.50;;;0.50;;
15573;SDS011;7888;46.748;8.102;2023-08-07T15:53:34;0.45;;;0.45;;
15573;SDS011;7888;46.748;8.102;2023-08-07T15:56:00;0.88;;;0.50;;
15573;SDS011;7888;46.748;8.102;2023-08-07T15:58:26;0.93;;;0.55;;
15573;SDS011;7888;46.748;8.102;2023-08-07T16:00:52;0.57;;;0.40;;
15573;SDS011;7888;46.748;8.102;2023-08-07T16:03:18;0.50;;;0.50;;
15573;SDS011;7888;46.748;8.102;2023-08-07T16:05:47;1.00;;;0.40;;
15573;SDS011;7888;46.748;8.102;2023-08-07T16:08:13;0.95;;;0.40;;
15573;SDS011;7888;46.748;8.102;2023-08-07T16:10:39;0.70;;;0.47;;
15573;SDS011;7888;46.748;8.102;2023-08-07T16:13:05;0.40;;;0.40;;
15573;SDS011;7888;46.748;8.102;2023-08-07T16:15:32;0.40;;;0.40;;
15573;SDS011;7888;46.748;8.102;2023-08-07T16:17:59;0.40;;;0.40;;
15573;SDS011;7888;46.748;8.102;2023-08-07T16:20:26;0.30;;;0.30;;
15573;SDS011;7888;46.748;8.102;2023-08-07T16:22:53;0.45;;;0.40;;
15573;SDS011;7888;46.748;8.102;2023-08-07T16:25:19;0.50;;;0.50;;
15573;SDS011;7888;46.748;8.102;2023-08-07T16:27:45;0.40;;;0.40;;
15573;SDS011;7888;46.748;8.102;2023-08-07T16:30:13;0.50;;;0.50;;
15573;SDS011;7888;46.748;8.102;2023-08-07T16:32:38;0.47;;;0.47;;
15573;SDS011;7888;46.748;8.102;2023-08-07T16:35:05;0.50;;;0.40;;
15573;SDS011;7888;46.748;8.102;2023-08-07T16:37:31;0.50;;;0.50;;
15573;SDS011;7888;46.748;8.102;2023-08-07T16:39:58;0.32;;;0.30;;
15573;SDS011;7888;46.748;8.102;2023-08-07T16:42:24;0.50;;;0.50;;
15573;SDS011;7888;46.748;8.102;2023-08-07T16:44:50;1.10;;;0.40;;
15573;SDS011;7888;46.748;8.102;2023-08-07T16:47:16;0.35;;;0.35;;
15573;SDS011;7888;46.748;8.102;2023-08-07T16:49:42;0.60;;;0.43;;
15573;SDS011;7888;46.748;8.102;2023-08-07T16:52:08;0.45;;;0.45;;
15573;SDS011;7888;46.748;8.102;2023-08-07T16:54:35;0.55;;;0.40;;
15573;SDS011;7888;46.748;8.102;2023-08-07T16:57:01;0.82;;;0.50;;
15573;SDS011;7888;46.748;8.102;2023-08-07T16:59:27;1.10;;;0.75;;
15573;SDS011;7888;46.748;8.102;2023-08-07T17:01:54;0.50;;;0.50;;
15573;SDS011;7888;46.748;8.102;2023-08-07T17:04:21;10.60;;;7.72;;
15573;SDS011;7888;46.748;8.102;2023-08-07T17:06:46;2.50;;;2.30;;
15573;SDS011;7888;46.748;8.102;2023-08-07T17:09:12;1.00;;;0.90;;
15573;SDS011;7888;46.748;8.102;2023-08-07T17:11:38;0.55;;;0.52;;
15573;SDS011;7888;46.748;8.102;2023-08-07T17:14:04;0.70;;;0.60;;
15573;SDS011;7888;46.748;8.102;2023-08-07T17:16:30;2.05;;;0.60;;
15573;SDS011;7888;46.748;8.102;2023-08-07T17:18:56;0.40;;;0.40;;
15573;SDS011;7888;46.748;8.102;2023-08-07T17:21:22;1.58;;;1.08;;
15573;SDS011;7888;46.748;8.102;2023-08-07T17:23:48;0.60;;;0.60;;
15573;SDS011;7888;46.748;8.102;2023-08-07T17:26:15;0.77;;;0.50;;
15573;SDS011;7888;46.748;8.102;2023-08-07T17:28:41;0.40;;;0.40;;
15573;SDS011;7888;46.748;8.102;2023-08-07T17:31:06;0.73;;;0.60;;
15573;SDS011;7888;46.748;8.102;2023-08-07T17:33:32;0.90;;;0.60;;
15573;SDS011;7888;46.748;8.102;2023-08-07T17:35:58;0.60;;;0.60;;
15573;SDS011;7888;46.748;8.102;2023-08-07T17:38:25;1.90;;;0.60;;
15573;SDS011;7888;46.748;8.102;2023-08-07T17:40:51;0.93;;;0.60;;
15573;SDS011;7888;46.748;8.102;2023-08-07T17:43:18;0.63;;;0.63;;
15573;SDS011;7888;46.748;8.102;2023-08-07T17:45:44;1.58;;;1.40;;
15573;SDS011;7888;46.748;8.102;2023-08-07T17:48:10;1.33;;;0.80;;
15573;SDS011;7888;46.748;8.102;2023-08-07T17:50:36;9.88;;;8.88;;
15573;SDS011;7888;46.748;8.102;2023-08-07T17:53:03;25.15;;;22.42;;
15573;SDS011;7888;46.748;8.102;2023-08-07T17:55:29;23.77;;;21.40;;
15573;SDS011;7888;46.748;8.102;2023-08-07T17:57:55;23.63;;;19.75;;
15573;SDS011;7888;46.748;8.102;2023-08-07T18:00:21;46.33;;;29.30;;
15573;SDS011;7888;46.748;8.102;2023-08-07T18:02:47;30.02;;;21.42;;
15573;SDS011;7888;46.748;8.102;2023-08-07T18:05:14;21.77;;;14.68;;
15573;SDS011;7888;46.748;8.102;2023-08-07T18:07:40;8.57;;;6.20;;
15573;SDS011;7888;46.748;8.102;2023-08-07T18:10:08;8.50;;;6.27;;
15573;SDS011;7888;46.748;8.102;2023-08-07T18:12:35;13.63;;;8.80;;
15573;SDS011;7888;46.748;8.102;2023-08-07T18:15:01;6.23;;;4.40;;
15573;SDS011;7888;46.748;8.102;2023-08-07T18:17:28;6.83;;;4.13;;
15573;SDS011;7888;46.748;8.102;2023-08-07T18:19:55;3.80;;;2.83;;
15573;SDS011;7888;46.748;8.102;2023-08-07T18:22:21;2.03;;;1.73;;
15573;SDS011;7888;46.748;8.102;2023-08-07T18:24:47;1.53;;;1.40;;
15573;SDS011;7888;46.748;8.102;2023-08-07T18:27:13;0.80;;;0.80;;
15573;SDS011;7888;46.748;8.102;2023-08-07T18:29:40;1.00;;;0.90;;
15573;SDS011;7888;46.748;8.102;2023-08-07T18:32:06;2.00;;;0.80;;
15573;SDS011;7888;46.748;8.102;2023-08-07T18:34:32;0.60;;;0.60;;
15573;SDS011;7888;46.748;8.102;2023-08-07T18:36:58;1.10;;;0.87;;
15573;SDS011;7888;46.748;8.102;2023-08-07T18:39:24;1.27;;;0.70;;
15573;SDS011;7888;46.748;8.102;2023-08-07T18:41:49;0.43;;;0.40;;
15573;SDS011;7888;46.748;8.102;2023-08-07T18:44:15;2.00;;;1.00;;
15573;SDS011;7888;46.748;8.102;2023-08-07T18:46:41;2.20;;;1.20;;
15573;SDS011;7888;46.748;8.102;2023-08-07T18:49:07;0.80;;;0.50;;
15573;SDS011;7888;46.748;8.102;2023-08-07T18:51:34;0.70;;;0.70;;
15573;SDS011;7888;46.748;8.102;2023-08-07T18:54:00;0.60;;;0.60;;
15573;SDS011;7888;46.748;8.102;2023-08-07T18:56:27;0.57;;;0.53;;
15573;SDS011;7888;46.748;8.102;2023-08-07T18:58:55;1.00;;;0.67;;
15573;SDS011;7888;46.748;8.102;2023-08-07T19:01:21;0.50;;;0.50;;
15573;SDS011;7888;46.748;8.102;2023-08-07T19:03:47;0.50;;;0.50;;
15573;SDS011;7888;46.748;8.102;2023-08-07T19:06:12;1.90;;;0.50;;
15573;SDS011;7888;46.748;8.102;2023-08-07T19:08:38;1.77;;;0.60;;
15573;SDS011;7888;46.748;8.102;2023-08-07T19:11:05;2.07;;;0.80;;
15573;SDS011;7888;46.748;8.102;2023-08-07T19:13:31;1.23;;;0.70;;
15573;SDS011;7888;46.748;8.102;2023-08-07T19:15:57;1.27;;;0.57;;
15573;SDS011;7888;46.748;8.102;2023-08-07T19:18:23;1.03;;;0.80;;
15573;SDS011;7888;46.748;8.102;2023-08-07T19:20:50;0.70;;;0.60;;
15573;SDS011;7888;46.748;8.102;2023-08-07T19:23:17;0.73;;;0.60;;
15573;SDS011;7888;46.748;8.102;2023-08-07T19:25:43;0.93;;;0.80;;
15573;SDS011;7888;46.748;8.102;2023-08-07T19:28:09;0.60;;;0.60;;
15573;SDS011;7888;46.748;8.102;2023-08-07T19:30:36;1.53;;;0.83;;
15573;SDS011;7888;46.748;8.102;2023-08-07T19:33:02;3.50;;;2.10;;
15573;SDS011;7888;46.748;8.102;2023-08-07T19:35:28;3.37;;;1.80;;
15573;SDS011;7888;46.748;8.102;2023-08-07T19:37:54;1.50;;;1.10;;
15573;SDS011;7888;46.748;8.102;2023-08-07T19:40:20;0.80;;;0.67;;
15573;SDS011;7888;46.748;8.102;2023-08-07T19:42:50;0.90;;;0.60;;
15573;SDS011;7888;46.748;8.102;2023-08-07T19:45:16;0.63;;;0.63;;
15573;SDS011;7888;46.748;8.102;2023-08-07T19:47:42;0.53;;;0.50;;
15573;SDS011;7888;46.748;8.102;2023-08-07T19:50:09;0.60;;;0.60;;
15573;SDS011;7888;46.748;8.102;2023-08-07T19:52:35;1.17;;;0.50;;
15573;SDS011;7888;46.748;8.102;2023-08-07T19:55:01;0.63;;;0.63;;
15573;SDS011;7888;46.748;8.102;2023-08-07T19:57:27;1.10;;;0.60;;
15573;SDS011;7888;46.748;8.102;2023-08-07T19:59:53;0.73;;;0.70;;
15573;SDS011;7888;46.748;8.102;2023-08-07T20:02:19;1.10;;;0.80;;
15573;SDS011;7888;46.748;8.102;2023-08-07T20:04:45;1.00;;;0.50;;
15573;SDS011;7888;46.748;8.102;2023-08-07T20:07:12;0.57;;;0.53;;
15573;SDS011;7888;46.748;8.102;2023-08-07T20:09:38;1.33;;;0.70;;
15573;SDS011;7888;46.748;8.102;2023-08-07T20:12:07;2.27;;;1.00;;
15573;SDS011;7888;46.748;8.102;2023-08-07T20:14:33;2.00;;;1.07;;
15573;SDS011;7888;46.748;8.102;2023-08-07T20:17:01;4.33;;;0.60;;
15573;SDS011;7888;46.748;8.102;2023-08-07T20:19:28;1.77;;;0.73;;
15573;SDS011;7888;46.748;8.102;2023-08-07T20:21:55;1.60;;;0.83;;
15573;SDS011;7888;46.748;8.102;2023-08-07T20:24:21;0.83;;;0.60;;
15573;SDS011;7888;46.748;8.102;2023-08-07T20:26:47;1.17;;;0.57;;
15573;SDS011;7888;46.748;8.102;2023-08-07T20:29:13;0.63;;;0.53;;
15573;SDS011;7888;46.748;8.102;2023-08-07T20:31:39;0.70;;;0.60;;
15573;SDS011;7888;46.748;8.102;2023-08-07T20:34:04;1.40;;;0.93;;
15573;SDS011;7888;46.748;8.102;2023-08-07T20:36:30;0.90;;;0.57;;
15573;SDS011;7888;46.748;8.102;2023-08-07T20:38:57;0.87;;;0.53;;
15573;SDS011;7888;46.748;8.102;2023-08-07T20:41:23;1.17;;;0.60;;
15573;SDS011;7888;46.748;8.102;2023-08-07T20:43:50;1.63;;;0.60;;
15573;SDS011;7888;46.748;8.102;2023-08-07T20:46:16;0.40;;;0.40;;
15573;SDS011;7888;46.748;8.102;2023-08-07T20:48:42;0.83;;;0.60;;
15573;SDS011;7888;46.748;8.102;2023-08-07T20:51:15;1.97;;;0.70;;